Eagle — WBP2187 — position and weather

sailwx.info

Track history (hours):
 
Tides and Currents Weather Stations Pressure Air Temp Water Temp Dewpoint Dewpoint Depression Visibility Wind Speed Wind Dir Waves Ship Positions

Eagle

Owner: Harley Marine Services, INC, SEATTLE, WA. More information available from US FCC via Universal Licensing System and Coast Guard Vessel Documentation Center.

Last reported at 2017-Dec-16 17:01 UTC. Time now 2017-Dec-16 17:08 UTC.
Position N 34°04' W 119°23'.

Length 32 m; draft 5.4 m.

Type: Towing. MMSI: 366978690.

Date/timePositionNaut miles runAvg speedWind from/ knotsBaromVisibWave heightAir tempDewpointWater temp
2017-Dec-16 17:01N 34°04' W 119°23'3 6.3
2017-Dec-16 16:30N 34°05' W 119°27'3 6.2
2017-Dec-16 15:57N 34°06' W 119°31'3 6.5
2017-Dec-16 15:30N 34°06' W 119°34'3 6.6
2017-Dec-16 15:00N 34°07' W 119°38'4 6.4
2017-Dec-16 14:24N 34°08' W 119°43'3 6.4
2017-Dec-16 14:00N 34°09' W 119°46'3 6.4
2017-Dec-16 13:28N 34°10' W 119°50'3 6.1
2017-Dec-16 13:01N 34°10' W 119°53'3 6.1
2017-Dec-16 12:27N 34°11' W 119°57'3 6.1
2017-Dec-16 11:59N 34°12' W 120°00'3 6.1
2017-Dec-16 11:28N 34°13' W 120°04'3 6.1
2017-Dec-16 10:57N 34°14' W 120°08'3 6.4
2017-Dec-16 10:30N 34°15' W 120°11'3 6.2
2017-Dec-16 10:00N 34°16' W 120°15'3 6.1
2017-Dec-16 09:29N 34°16' W 120°18'3 6.3
2017-Dec-16 09:00N 34°17' W 120°22'3 6.1
2017-Dec-16 08:30N 34°18' W 120°26'3 6.0
2017-Dec-16 08:00N 34°19' W 120°29'3 6.0
2017-Dec-16 07:28N 34°20' W 120°33'3 6.4
2017-Dec-16 07:00N 34°20' W 120°36'4 6.8
2017-Dec-16 06:27N 34°21' W 120°41'3 6.9
2017-Dec-16 06:00N 34°22' W 120°44'3 6.9
2017-Dec-16 05:30N 34°23' W 120°48'3 6.6
2017-Dec-16 05:00N 34°25' W 120°52'3 6.7
2017-Dec-16 04:30N 34°27' W 120°54'3 6.5
2017-Dec-16 04:00N 34°30' W 120°57'3 6.3
2017-Dec-16 03:30N 34°32' W 120°59'3 6.4
2017-Dec-16 03:00N 34°35' W 121°02'3 6.6
2017-Dec-16 02:30N 34°37' W 121°04'3 6.9
2017-Dec-16 02:00N 34°40' W 121°07'3 6.7
2017-Dec-16 01:30N 34°43' W 121°09'4 7.0
2017-Dec-16 00:55N 34°46' W 121°12'3 7.1
2017-Dec-16 00:30N 34°49' W 121°14'4 7.0
2017-Dec-16 00:00N 34°51' W 121°17'4 7.2
2017-Dec-15 23:30N 34°54' W 121°20'4 7.2
2017-Dec-15 23:00N 34°57' W 121°23'4 7.1
2017-Dec-15 22:30N 34°59' W 121°25'3 6.8
2017-Dec-15 22:00N 35°02' W 121°28'4 7.0
2017-Dec-15 21:30N 35°04' W 121°31'4 6.8
2017-Dec-15 20:59N 35°07' W 121°34'3 6.7
2017-Dec-15 20:30N 35°09' W 121°37'3 6.4
2017-Dec-15 20:00N 35°12' W 121°39'3 6.2
2017-Dec-15 19:31N 35°15' W 121°39'3 6.3
2017-Dec-15 19:00N 35°18' W 121°40'3 6.5
2017-Dec-15 18:31N 35°21' W 121°42'3 6.8
2017-Dec-15 18:00N 35°23' W 121°44'3 6.3
2017-Dec-15 17:31N 35°26' W 121°47'3 6.2
2017-Dec-15 17:01N 35°29' W 121°49'3 6.1
2017-Dec-15 16:31N 35°31' W 121°51'3 6.3
2017-Dec-15 16:00N 35°34' W 121°53'3 6.6
2017-Dec-15 15:30N 35°36' W 121°56'3 6.8
2017-Dec-15 15:00N 35°39' W 121°58'3 6.6
2017-Dec-15 14:31N 35°41' W 122°01'3 6.7
2017-Dec-15 14:01N 35°44' W 122°04'3 6.3
2017-Dec-15 13:31N 35°46' W 122°06'3 6.2
2017-Dec-15 13:00N 35°49' W 122°09'3 6.3
2017-Dec-15 12:31N 35°51' W 122°10'3 6.2
2017-Dec-15 12:00N 35°54' W 122°11'3 6.3
2017-Dec-15 11:30N 35°57' W 122°14'3 6.5
2017-Dec-15 11:00N 35°60' W 122°16'3 6.8
2017-Dec-15 10:30N 36°02' W 122°19'3 6.7
2017-Dec-15 10:01N 36°05' W 122°21'3 6.5
2017-Dec-15 09:30N 36°08' W 122°23'3 6.7
2017-Dec-15 09:01N 36°11' W 122°25'4 6.9
2017-Dec-15 08:30N 36°14' W 122°27'3 6.8
2017-Dec-15 08:00N 36°17' W 122°29'3 6.7
2017-Dec-15 07:30N 36°20' W 122°30'3 6.8
2017-Dec-15 07:01N 36°23' W 122°32'3 6.9
2017-Dec-15 06:31N 36°26' W 122°34'3 6.8
2017-Dec-15 06:01N 36°29' W 122°35'3 6.9
2017-Dec-15 05:30N 36°33' W 122°37'3 6.9
2017-Dec-15 05:01N 36°36' W 122°39'3 6.8
2017-Dec-15 04:31N 36°39' W 122°41'3 7.0
2017-Dec-15 04:01N 36°42' W 122°42'11 7.1
2017-Dec-15 02:31N 36°52' W 122°48'10 6.9
2017-Dec-15 01:00N 37°01' W 122°53'4 7.2
2017-Dec-15 00:31N 37°04' W 122°55'35 5.8
2017-Dec-14 18:31N 37°39' W 122°55'3 6.3
2017-Dec-14 18:00N 37°41' W 122°51'3 6.0
2017-Dec-14 17:31N 37°43' W 122°48'3 6.1
2017-Dec-14 17:00N 37°44' W 122°45'3 6.2
2017-Dec-14 16:28N 37°45' W 122°41'3 5.8
2017-Dec-14 15:58N 37°46' W 122°37'5 5.1
2017-Dec-14 15:01N 37°48' W 122°32'2 4.1
2017-Dec-14 14:31N 37°49' W 122°30'2 4.2
2017-Dec-14 14:01N 37°50' W 122°27'2 4.9
2017-Dec-14 13:31N 37°51' W 122°25'3 6.1
2017-Dec-14 13:01N 37°54' W 122°26'3 6.4
2017-Dec-14 12:29N 37°57' W 122°27'3 6.8
2017-Dec-14 12:00N 38°00' W 122°24'3 6.2
2017-Dec-14 11:30N 38°02' W 122°21'3 6.3
2017-Dec-14 10:59N 38°03' W 122°17'4 7.8
2017-Dec-14 10:30N 38°04' W 122°13'3 6.8
2017-Dec-14 10:00N 38°02' W 122°09'1 0.5
2017-Dec-14 08:29N 38°02' W 122°08'0 0.1
2017-Dec-14 08:00N 38°02' W 122°08'0 0.0
2017-Dec-14 07:31N 38°02' W 122°08'0 0.0
2017-Dec-14 06:50N 38°02' W 122°08'0 0.0
2017-Dec-14 06:30N 38°02' W 122°08'0 0.0
2017-Dec-14 05:59N 38°02' W 122°08'0 0.0
2017-Dec-14 05:30N 38°02' W 122°08'0 0.0
2017-Dec-14 05:01N 38°02' W 122°08'0 0.0
2017-Dec-14 04:30N 38°02' W 122°08'0 0.0
2017-Dec-14 03:45N 38°02' W 122°08'0 0.0
2017-Dec-14 03:30N 38°02' W 122°08'0 0.0
2017-Dec-13 22:08N 38°02' W 122°08'0 0.0
2017-Dec-13 19:20N 38°02' W 122°08'2 0.4
2017-Dec-13 13:44N 38°03' W 122°11'2 7.5
2017-Dec-13 13:27N 38°04' W 122°14'3 7.3
2017-Dec-13 13:00N 38°03' W 122°18'4 7.0
2017-Dec-13 12:29N 38°02' W 122°22'4 8.1
2017-Dec-13 11:58N 37°59' W 122°26'3 6.2
2017-Dec-13 11:31N 37°56' W 122°26'3 5.9
2017-Dec-13 11:01N 37°54' W 122°23'1 1.1
2017-Dec-13 10:13N 37°55' W 122°22'0 0.0
2017-Dec-13 09:43N 37°55' W 122°22'0 0.0
2017-Dec-13 09:16N 37°55' W 122°22'0 0.0
2017-Dec-13 08:49N 37°55' W 122°22'0 0.0
2017-Dec-13 08:28N 37°55' W 122°22'0 0.0
2017-Dec-13 07:55N 37°55' W 122°22'0 0.0
2017-Dec-13 07:28N 37°55' W 122°22'0 0.0
2017-Dec-13 06:55N 37°55' W 122°22'0 0.0
2017-Dec-13 06:25N 37°55' W 122°22'0 0.0
2017-Dec-13 05:55N 37°55' W 122°22'0 0.0
2017-Dec-13 05:19N 37°55' W 122°22'0 0.0
2017-Dec-13 03:55N 37°55' W 122°22'0 0.0
2017-Dec-13 03:25N 37°55' W 122°22'0 0.0
2017-Dec-13 02:55N 37°55' W 122°22'0 0.0
2017-Dec-13 02:28N 37°55' W 122°22'0 0.0
2017-Dec-13 01:55N 37°55' W 122°22'0 0.0
2017-Dec-13 01:16N 37°55' W 122°22'0 0.0
2017-Dec-13 00:58N 37°55' W 122°22'0 0.0
2017-Dec-13 00:10N 37°55' W 122°22'0 0.0
2017-Dec-12 23:58N 37°55' W 122°22'0 0.0
2017-Dec-12 23:16N 37°55' W 122°22'0 0.0
2017-Dec-12 22:58N 37°55' W 122°22'0 0.0
2017-Dec-12 22:25N 37°55' W 122°22'0 0.0
2017-Dec-12 21:58N 37°55' W 122°22'0 0.0
2017-Dec-12 21:25N 37°55' W 122°22'0 0.0
2017-Dec-12 20:58N 37°55' W 122°22'0 0.0
2017-Dec-12 19:52N 37°55' W 122°22'0 0.0
2017-Dec-12 18:09N 37°55' W 122°22'0 0.0
2017-Dec-12 18:00N 37°55' W 122°22'0 0.0
2017-Dec-12 17:27N 37°55' W 122°22'0 0.0
2017-Dec-12 16:57N 37°55' W 122°22'0 0.0
2017-Dec-12 16:27N 37°55' W 122°22'0 0.0
2017-Dec-12 15:57N 37°55' W 122°22'0 0.0
2017-Dec-12 15:27N 37°55' W 122°22'0 0.0
2017-Dec-12 14:57N 37°55' W 122°22'0 0.0
2017-Dec-12 14:27N 37°55' W 122°22'0 0.0
2017-Dec-12 13:57N 37°55' W 122°22'0 0.0
2017-Dec-12 13:27N 37°55' W 122°22'0 0.0
2017-Dec-12 13:00N 37°55' W 122°22'0 0.0
2017-Dec-12 12:27N 37°55' W 122°22'0 0.0
2017-Dec-12 11:57N 37°55' W 122°22'0 0.0
2017-Dec-12 11:27N 37°55' W 122°22'0 0.0
2017-Dec-12 10:57N 37°55' W 122°22'0 0.0
2017-Dec-12 10:27N 37°55' W 122°22'0 0.0
2017-Dec-12 09:51N 37°55' W 122°22'0 0.0
2017-Dec-12 09:27N 37°55' W 122°22'0 0.0
2017-Dec-12 08:51N 37°55' W 122°22'0 0.0
2017-Dec-12 08:27N 37°55' W 122°22'0 0.0
2017-Dec-12 07:57N 37°55' W 122°22'0 0.0
2017-Dec-12 07:21N 37°55' W 122°22'0 0.0
2017-Dec-12 06:57N 37°55' W 122°22'0 0.0
2017-Dec-12 06:21N 37°55' W 122°22'0 0.0
2017-Dec-12 05:57N 37°55' W 122°22'0 0.0
2017-Dec-12 05:21N 37°55' W 122°22'0 0.0
2017-Dec-12 04:57N 37°55' W 122°22'0 0.0
2017-Dec-12 04:15N 37°55' W 122°22'0 0.0
2017-Dec-12 03:51N 37°55' W 122°22'0 0.0
2017-Dec-12 02:39N 37°55' W 122°22'0 0.0
2017-Dec-12 02:27N 37°55' W 122°22'0 0.0
2017-Dec-12 02:00N 37°55' W 122°22'0 0.3
2017-Dec-12 01:27N 37°55' W 122°22'0 0.0
2017-Dec-12 00:57N 37°55' W 122°22'0 0.3
2017-Dec-12 00:25N 37°55' W 122°22'0 0.0
2017-Dec-11 23:58N 37°55' W 122°22'0 0.0
2017-Dec-11 23:28N 37°55' W 122°22'0 0.0
2017-Dec-11 22:58N 37°55' W 122°22'0 0.0
2017-Dec-11 22:28N 37°55' W 122°22'0 0.0
2017-Dec-11 21:55N 37°55' W 122°22'0 0.0
2017-Dec-11 21:28N 37°55' W 122°22'0 0.0
2017-Dec-11 20:58N 37°55' W 122°22'0 0.0
2017-Dec-11 20:28N 37°55' W 122°22'0 0.7
2017-Dec-11 20:00N 37°54' W 122°22'0 0.7
2017-Dec-11 19:29N 37°55' W 122°22'0 0.0
2017-Dec-11 18:53N 37°55' W 122°22'0 0.0
2017-Dec-11 18:29N 37°55' W 122°22'0 0.0
2017-Dec-11 17:59N 37°55' W 122°22'0 0.0
2017-Dec-11 17:29N 37°55' W 122°22'0 0.0
2017-Dec-11 16:59N 37°55' W 122°22'0 0.0
2017-Dec-11 16:23N 37°55' W 122°22'0 0.0
2017-Dec-11 15:59N 37°55' W 122°22'0 0.0
2017-Dec-11 15:26N 37°55' W 122°22'0 0.0
2017-Dec-11 14:59N 37°55' W 122°22'0 0.0
2017-Dec-11 14:26N 37°55' W 122°22'0 0.0
2017-Dec-11 13:59N 37°55' W 122°22'0 0.0
2017-Dec-11 13:29N 37°55' W 122°22'0 0.0
2017-Dec-11 12:56N 37°55' W 122°22'0 0.0
2017-Dec-11 12:29N 37°55' W 122°22'0 0.0
2017-Dec-11 11:59N 37°55' W 122°22'0 0.0
2017-Dec-11 11:29N 37°55' W 122°22'0 0.0
2017-Dec-11 10:59N 37°55' W 122°22'0 0.0
2017-Dec-11 10:29N 37°55' W 122°22'0 0.0
2017-Dec-11 09:59N 37°55' W 122°22'0 0.0
2017-Dec-11 09:26N 37°55' W 122°22'0 0.0
2017-Dec-11 08:59N 37°55' W 122°22'0 0.0
2017-Dec-11 08:29N 37°55' W 122°22'0 0.0
2017-Dec-11 07:59N 37°55' W 122°22'0 0.0
2017-Dec-11 07:23N 37°55' W 122°22'0 0.0
2017-Dec-11 06:59N 37°55' W 122°22'0 0.0
2017-Dec-11 06:29N 37°55' W 122°22'0 0.0
2017-Dec-11 05:59N 37°55' W 122°22'0 0.0
2017-Dec-11 05:29N 37°55' W 122°22'0 0.0
2017-Dec-11 04:56N 37°55' W 122°22'0 0.0
2017-Dec-11 04:29N 37°55' W 122°22'0 0.0
2017-Dec-11 03:56N 37°55' W 122°22'0 0.0
2017-Dec-11 03:29N 37°55' W 122°22'0 0.0
2017-Dec-11 02:56N 37°55' W 122°22'0 0.0
2017-Dec-11 02:29N 37°55' W 122°22'0 0.0
2017-Dec-11 01:53N 37°55' W 122°22'0 0.0
2017-Dec-11 01:29N 37°55' W 122°22'0 0.0
2017-Dec-11 00:59N 37°55' W 122°22'0 0.0
2017-Dec-11 00:26N 37°55' W 122°22'0 0.0
2017-Dec-10 23:56N 37°55' W 122°22'0 0.0
2017-Dec-10 23:29N 37°55' W 122°22'0 0.0
2017-Dec-10 22:59N 37°55' W 122°22'0 0.0
2017-Dec-10 22:29N 37°55' W 122°22'0 0.0
2017-Dec-10 21:56N 37°55' W 122°22'0 0.0
2017-Dec-10 21:26N 37°55' W 122°22'0 0.0
2017-Dec-10 20:59N 37°55' W 122°22'0 0.0
2017-Dec-10 20:29N 37°55' W 122°22'0 0.0
2017-Dec-10 19:58N 37°55' W 122°22'0 0.0
2017-Dec-10 19:28N 37°55' W 122°22'0 0.0
2017-Dec-10 18:58N 37°55' W 122°22'0 0.0
2017-Dec-10 18:28N 37°55' W 122°22'0 0.0
2017-Dec-10 17:58N 37°55' W 122°22'0 0.0
2017-Dec-10 17:28N 37°55' W 122°22'0 0.0
2017-Dec-10 16:58N 37°55' W 122°22'0 0.0
2017-Dec-10 16:25N 37°55' W 122°22'0 0.0
2017-Dec-10 15:58N 37°55' W 122°22'0 0.0
2017-Dec-10 15:25N 37°55' W 122°22'0 0.0
2017-Dec-10 14:58N 37°55' W 122°22'0 0.0
2017-Dec-10 14:25N 37°55' W 122°22'0 0.0
2017-Dec-10 13:55N 37°55' W 122°22'0 0.0
2017-Dec-10 13:28N 37°55' W 122°22'0 0.0
2017-Dec-10 12:58N 37°55' W 122°22'0 0.0
2017-Dec-10 12:28N 37°55' W 122°22'0 0.0
2017-Dec-10 11:58N 37°55' W 122°22'0 0.0
2017-Dec-10 11:28N 37°55' W 122°22'0 0.0
2017-Dec-10 10:58N 37°55' W 122°22'0 0.0
2017-Dec-10 10:28N 37°55' W 122°22'0 0.0
2017-Dec-10 09:55N 37°55' W 122°22'0 0.0
2017-Dec-10 09:19N 37°55' W 122°22'0 0.0
2017-Dec-10 08:58N 37°55' W 122°22'0 0.0
2017-Dec-10 08:28N 37°55' W 122°22'0 0.0
2017-Dec-10 07:58N 37°55' W 122°22'0 0.0
2017-Dec-10 07:28N 37°55' W 122°22'0 0.0
2017-Dec-10 06:55N 37°55' W 122°22'0 0.0
2017-Dec-10 06:28N 37°55' W 122°22'0 0.0
2017-Dec-10 05:58N 37°55' W 122°22'0 0.0
2017-Dec-10 05:31N 37°55' W 122°22'0 0.0
2017-Dec-10 05:01N 37°55' W 122°22'0 0.0
2017-Dec-10 04:27N 37°55' W 122°22'0 0.0
2017-Dec-10 03:57N 37°55' W 122°22'0 0.0
2017-Dec-10 03:30N 37°55' W 122°22'0 0.0
2017-Dec-10 03:00N 37°55' W 122°22'0 0.0
2017-Dec-10 02:27N 37°55' W 122°22'0 0.0
2017-Dec-10 02:00N 37°55' W 122°22'0 0.0
2017-Dec-10 01:30N 37°55' W 122°22'0 0.0
2017-Dec-10 00:57N 37°55' W 122°22'0 0.0
2017-Dec-10 00:30N 37°55' W 122°22'0 0.0
2017-Dec-10 00:00N 37°55' W 122°22'0 0.0
2017-Dec-09 23:30N 37°55' W 122°22'0 0.0
2017-Dec-09 23:00N 37°55' W 122°22'0 0.0
2017-Dec-09 22:30N 37°55' W 122°22'0 0.0
2017-Dec-09 22:00N 37°55' W 122°22'0 0.0
2017-Dec-09 21:30N 37°55' W 122°22'0 0.0
2017-Dec-09 21:00N 37°55' W 122°22'0 0.0
2017-Dec-09 20:24N 37°55' W 122°22'0 0.0
2017-Dec-09 20:00N 37°55' W 122°22'0 0.0
2017-Dec-09 19:24N 37°55' W 122°22'0 0.0
2017-Dec-09 18:54N 37°55' W 122°22'0 0.0
2017-Dec-09 18:30N 37°55' W 122°22'0 0.0
2017-Dec-09 18:00N 37°55' W 122°22'0 0.0
2017-Dec-09 17:30N 37°55' W 122°22'0 0.0
2017-Dec-09 17:00N 37°55' W 122°22'0 0.0
2017-Dec-09 16:30N 37°55' W 122°22'0 0.0
2017-Dec-09 16:00N 37°55' W 122°22'0 0.0
2017-Dec-09 15:30N 37°55' W 122°22'0 0.0
2017-Dec-09 15:00N 37°55' W 122°22'2 3.0
2017-Dec-09 14:30N 37°54' W 122°24'2 3.5
2017-Dec-09 14:01N 37°54' W 122°26'3 5.4
2017-Dec-09 13:31N 37°52' W 122°24'3 5.8
2017-Dec-09 13:00N 37°49' W 122°26'4 7.8
2017-Dec-09 12:31N 37°48' W 122°31'4 8.9
2017-Dec-09 12:01N 37°46' W 122°36'5 8.6
2017-Dec-09 11:28N 37°44' W 122°41'4 8.9
2017-Dec-09 11:00N 37°41' W 122°45'4 8.9
2017-Dec-09 10:30N 37°39' W 122°50'4 8.8
2017-Dec-09 10:00N 37°36' W 122°54'4 8.8
2017-Dec-09 09:30N 37°34' W 122°59'4 8.3
2017-Dec-09 09:00N 37°31' W 123°02'4 8.8
2017-Dec-09 08:30N 37°26' W 123°02'6 8.9
2017-Dec-09 07:53N 37°21' W 123°01'4 9.1
2017-Dec-09 07:29N 37°18' W 122°60'11 8.9
2017-Dec-09 06:13N 37°07' W 122°56'2 8.5
2017-Dec-09 05:59N 37°05' W 122°55'4 8.4
2017-Dec-09 05:30N 37°01' W 122°53'4 8.6
2017-Dec-09 04:59N 36°57' W 122°50'4 8.6
2017-Dec-09 04:30N 36°53' W 122°48'4 8.6
2017-Dec-09 04:00N 36°49' W 122°46'3 6.7
2017-Dec-09 03:30N 36°46' W 122°45'5 8.5
2017-Dec-09 02:53N 36°41' W 122°42'3 8.8
2017-Dec-09 02:30N 36°38' W 122°40'4 8.6
2017-Dec-09 02:00N 36°34' W 122°38'4 8.7
2017-Dec-09 01:31N 36°30' W 122°36'4 8.7
2017-Dec-09 01:00N 36°26' W 122°34'4 8.6
2017-Dec-09 00:30N 36°23' W 122°32'4 8.7
2017-Dec-09 00:00N 36°19' W 122°29'4 8.3
2017-Dec-08 23:30N 36°15' W 122°27'4 8.6
2017-Dec-08 23:00N 36°11' W 122°25'4 8.8
2017-Dec-08 22:30N 36°07' W 122°22'4 8.7
2017-Dec-08 22:00N 36°04' W 122°19'5 9.1
2017-Dec-08 21:30N 35°60' W 122°16'5 9.2
2017-Dec-08 21:00N 35°56' W 122°13'5 9.4
2017-Dec-08 20:30N 35°52' W 122°09'5 9.3
2017-Dec-08 20:00N 35°49' W 122°06'5 9.1
2017-Dec-08 19:30N 35°45' W 122°03'4 8.9
2017-Dec-08 19:00N 35°41' W 121°59'4 8.9
2017-Dec-08 18:30N 35°38' W 121°56'4 8.8
2017-Dec-08 18:00N 35°34' W 121°53'5 9.3
2017-Dec-08 17:30N 35°31' W 121°49'4 7.5
2017-Dec-08 17:00N 35°28' W 121°47'3 5.2
2017-Dec-08 16:30N 35°25' W 121°45'3 5.2
2017-Dec-08 16:00N 35°23' W 121°43'3 5.2
2017-Dec-08 15:30N 35°21' W 121°41'3 5.5
2017-Dec-08 15:00N 35°19' W 121°39'3 5.7
2017-Dec-08 14:31N 35°17' W 121°37'3 6.3
2017-Dec-08 14:01N 35°14' W 121°35'3 6.1
2017-Dec-08 13:30N 35°12' W 121°32'3 6.0
2017-Dec-08 13:01N 35°09' W 121°30'3 6.0
2017-Dec-08 12:30N 35°07' W 121°28'3 5.8
2017-Dec-08 12:00N 35°05' W 121°26'3 5.8
2017-Dec-08 11:30N 35°02' W 121°24'3 5.9
2017-Dec-08 11:00N 35°00' W 121°22'3 6.1
2017-Dec-08 10:30N 34°58' W 121°19'3 6.1
2017-Dec-08 09:59N 34°55' W 121°17'3 5.9
2017-Dec-08 09:31N 34°53' W 121°15'3 5.7
2017-Dec-08 09:00N 34°50' W 121°13'3 5.7
2017-Dec-08 08:28N 34°48' W 121°11'3 5.5
2017-Dec-08 08:01N 34°46' W 121°09'3 5.4
2017-Dec-08 07:31N 34°44' W 121°07'3 5.8
2017-Dec-08 07:00N 34°41' W 121°05'3 5.9
2017-Dec-08 06:31N 34°39' W 121°03'3 6.0
2017-Dec-08 06:01N 34°36' W 121°01'3 6.0
2017-Dec-08 05:31N 34°34' W 120°60'3 6.0
2017-Dec-08 05:01N 34°31' W 120°57'4 7.3
2017-Dec-08 04:31N 34°29' W 120°54'4 7.9
2017-Dec-08 03:57N 34°26' W 120°50'4 8.4
2017-Dec-08 03:28N 34°25' W 120°45'4 8.5
2017-Dec-08 02:59N 34°24' W 120°40'4 8.7
2017-Dec-08 02:29N 34°23' W 120°35'4 8.5
2017-Dec-08 02:00N 34°22' W 120°30'4 8.5
2017-Dec-08 01:30N 34°20' W 120°25'4 8.3
2017-Dec-08 01:00N 34°19' W 120°21'4 8.6
2017-Dec-08 00:31N 34°18' W 120°16'4 8.5
2017-Dec-08 00:00N 34°17' W 120°11'4 8.2
2017-Dec-07 23:30N 34°16' W 120°06'4 8.1
2017-Dec-07 22:59N 34°15' W 120°01'4 8.7
2017-Dec-07 22:28N 34°14' W 119°56'4 8.6
2017-Dec-07 21:59N 34°13' W 119°51'4 9.0
2017-Dec-07 21:30N 34°12' W 119°46'5 9.2
2017-Dec-07 21:00N 34°10' W 119°40'6 9.4
2017-Dec-07 20:23N 34°09' W 119°34'3 9.3
2017-Dec-07 20:01N 34°08' W 119°30'5 9.3
2017-Dec-07 19:31N 34°07' W 119°24'5 9.6
2017-Dec-07 19:00N 34°05' W 119°19'5 9.4
2017-Dec-07 18:30N 34°04' W 119°13'5 9.3
2017-Dec-07 18:00N 34°01' W 119°08'4 8.9
2017-Dec-07 17:31N 33°59' W 119°04'4 8.7
2017-Dec-07 17:01N 33°57' W 118°59'4 8.5
2017-Dec-07 16:31N 33°55' W 118°55'4 8.8
2017-Dec-07 16:00N 33°53' W 118°50'5 8.7
2017-Dec-07 15:29N 33°50' W 118°45'5 8.5
2017-Dec-07 14:54N 33°48' W 118°40'3 8.4
2017-Dec-07 14:30N 33°46' W 118°37'  
Track history (hours):
 
Tides and Currents Weather Stations Pressure Air Temp Water Temp Dewpoint Dewpoint Depression Visibility Wind Speed Wind Dir Waves Ship Positions

Eagle

Owner: Harley Marine Services, INC, SEATTLE, WA. More information available from US FCC via Universal Licensing System and Coast Guard Vessel Documentation Center.

Last reported at 2017-Dec-16 17:01 UTC. Time now 2017-Dec-16 17:08 UTC.
Position N 34°04' W 119°23'.

Length 32 m; draft 5.4 m.

Type: Towing. MMSI: 366978690.

Date/timePositionNaut miles runAvg speedWind from/ knotsBaromVisibWave heightAir tempDewpointWater temp
2017-Dec-16 17:01N 34°04' W 119°23'3 6.3
2017-Dec-16 16:30N 34°05' W 119°27'3 6.2
2017-Dec-16 15:57N 34°06' W 119°31'3 6.5
2017-Dec-16 15:30N 34°06' W 119°34'3 6.6
2017-Dec-16 15:00N 34°07' W 119°38'4 6.4
2017-Dec-16 14:24N 34°08' W 119°43'3 6.4
2017-Dec-16 14:00N 34°09' W 119°46'3 6.4
2017-Dec-16 13:28N 34°10' W 119°50'3 6.1
2017-Dec-16 13:01N 34°10' W 119°53'3 6.1
2017-Dec-16 12:27N 34°11' W 119°57'3 6.1
2017-Dec-16 11:59N 34°12' W 120°00'3 6.1
2017-Dec-16 11:28N 34°13' W 120°04'3 6.1
2017-Dec-16 10:57N 34°14' W 120°08'3 6.4
2017-Dec-16 10:30N 34°15' W 120°11'3 6.2
2017-Dec-16 10:00N 34°16' W 120°15'3 6.1
2017-Dec-16 09:29N 34°16' W 120°18'3 6.3
2017-Dec-16 09:00N 34°17' W 120°22'3 6.1
2017-Dec-16 08:30N 34°18' W 120°26'3 6.0
2017-Dec-16 08:00N 34°19' W 120°29'3 6.0
2017-Dec-16 07:28N 34°20' W 120°33'3 6.4
2017-Dec-16 07:00N 34°20' W 120°36'4 6.8
2017-Dec-16 06:27N 34°21' W 120°41'3 6.9
2017-Dec-16 06:00N 34°22' W 120°44'3 6.9
2017-Dec-16 05:30N 34°23' W 120°48'3 6.6
2017-Dec-16 05:00N 34°25' W 120°52'3 6.7
2017-Dec-16 04:30N 34°27' W 120°54'3 6.5
2017-Dec-16 04:00N 34°30' W 120°57'3 6.3
2017-Dec-16 03:30N 34°32' W 120°59'3 6.4
2017-Dec-16 03:00N 34°35' W 121°02'3 6.6
2017-Dec-16 02:30N 34°37' W 121°04'3 6.9
2017-Dec-16 02:00N 34°40' W 121°07'3 6.7
2017-Dec-16 01:30N 34°43' W 121°09'4 7.0
2017-Dec-16 00:55N 34°46' W 121°12'3 7.1
2017-Dec-16 00:30N 34°49' W 121°14'4 7.0
2017-Dec-16 00:00N 34°51' W 121°17'4 7.2
2017-Dec-15 23:30N 34°54' W 121°20'4 7.2
2017-Dec-15 23:00N 34°57' W 121°23'4 7.1
2017-Dec-15 22:30N 34°59' W 121°25'3 6.8
2017-Dec-15 22:00N 35°02' W 121°28'4 7.0
2017-Dec-15 21:30N 35°04' W 121°31'4 6.8
2017-Dec-15 20:59N 35°07' W 121°34'3 6.7
2017-Dec-15 20:30N 35°09' W 121°37'3 6.4
2017-Dec-15 20:00N 35°12' W 121°39'3 6.2
2017-Dec-15 19:31N 35°15' W 121°39'3 6.3
2017-Dec-15 19:00N 35°18' W 121°40'3 6.5
2017-Dec-15 18:31N 35°21' W 121°42'3 6.8
2017-Dec-15 18:00N 35°23' W 121°44'3 6.3
2017-Dec-15 17:31N 35°26' W 121°47'3 6.2
2017-Dec-15 17:01N 35°29' W 121°49'3 6.1
2017-Dec-15 16:31N 35°31' W 121°51'3 6.3
2017-Dec-15 16:00N 35°34' W 121°53'3 6.6
2017-Dec-15 15:30N 35°36' W 121°56'3 6.8
2017-Dec-15 15:00N 35°39' W 121°58'3 6.6
2017-Dec-15 14:31N 35°41' W 122°01'3 6.7
2017-Dec-15 14:01N 35°44' W 122°04'3 6.3
2017-Dec-15 13:31N 35°46' W 122°06'3 6.2
2017-Dec-15 13:00N 35°49' W 122°09'3 6.3
2017-Dec-15 12:31N 35°51' W 122°10'3 6.2
2017-Dec-15 12:00N 35°54' W 122°11'3 6.3
2017-Dec-15 11:30N 35°57' W 122°14'3 6.5
2017-Dec-15 11:00N 35°60' W 122°16'3 6.8
2017-Dec-15 10:30N 36°02' W 122°19'3 6.7
2017-Dec-15 10:01N 36°05' W 122°21'3 6.5
2017-Dec-15 09:30N 36°08' W 122°23'3 6.7
2017-Dec-15 09:01N 36°11' W 122°25'4 6.9
2017-Dec-15 08:30N 36°14' W 122°27'3 6.8
2017-Dec-15 08:00N 36°17' W 122°29'3 6.7
2017-Dec-15 07:30N 36°20' W 122°30'3 6.8
2017-Dec-15 07:01N 36°23' W 122°32'3 6.9
2017-Dec-15 06:31N 36°26' W 122°34'3 6.8
2017-Dec-15 06:01N 36°29' W 122°35'3 6.9
2017-Dec-15 05:30N 36°33' W 122°37'3 6.9
2017-Dec-15 05:01N 36°36' W 122°39'3 6.8
2017-Dec-15 04:31N 36°39' W 122°41'3 7.0
2017-Dec-15 04:01N 36°42' W 122°42'11 7.1
2017-Dec-15 02:31N 36°52' W 122°48'10 6.9
2017-Dec-15 01:00N 37°01' W 122°53'4 7.2
2017-Dec-15 00:31N 37°04' W 122°55'35 5.8
2017-Dec-14 18:31N 37°39' W 122°55'3 6.3
2017-Dec-14 18:00N 37°41' W 122°51'3 6.0
2017-Dec-14 17:31N 37°43' W 122°48'3 6.1
2017-Dec-14 17:00N 37°44' W 122°45'3 6.2
2017-Dec-14 16:28N 37°45' W 122°41'3 5.8
2017-Dec-14 15:58N 37°46' W 122°37'5 5.1
2017-Dec-14 15:01N 37°48' W 122°32'2 4.1
2017-Dec-14 14:31N 37°49' W 122°30'2 4.2
2017-Dec-14 14:01N 37°50' W 122°27'2 4.9
2017-Dec-14 13:31N 37°51' W 122°25'3 6.1
2017-Dec-14 13:01N 37°54' W 122°26'3 6.4
2017-Dec-14 12:29N 37°57' W 122°27'3 6.8
2017-Dec-14 12:00N 38°00' W 122°24'3 6.2
2017-Dec-14 11:30N 38°02' W 122°21'3 6.3
2017-Dec-14 10:59N 38°03' W 122°17'4 7.8
2017-Dec-14 10:30N 38°04' W 122°13'3 6.8
2017-Dec-14 10:00N 38°02' W 122°09'1 0.5
2017-Dec-14 08:29N 38°02' W 122°08'0 0.1
2017-Dec-14 08:00N 38°02' W 122°08'0 0.0
2017-Dec-14 07:31N 38°02' W 122°08'0 0.0
2017-Dec-14 06:50N 38°02' W 122°08'0 0.0
2017-Dec-14 06:30N 38°02' W 122°08'0 0.0
2017-Dec-14 05:59N 38°02' W 122°08'0 0.0
2017-Dec-14 05:30N 38°02' W 122°08'0 0.0
2017-Dec-14 05:01N 38°02' W 122°08'0 0.0
2017-Dec-14 04:30N 38°02' W 122°08'0 0.0
2017-Dec-14 03:45N 38°02' W 122°08'0 0.0
2017-Dec-14 03:30N 38°02' W 122°08'0 0.0
2017-Dec-13 22:08N 38°02' W 122°08'0 0.0
2017-Dec-13 19:20N 38°02' W 122°08'2 0.4
2017-Dec-13 13:44N 38°03' W 122°11'2 7.5
2017-Dec-13 13:27N 38°04' W 122°14'3 7.3
2017-Dec-13 13:00N 38°03' W 122°18'4 7.0
2017-Dec-13 12:29N 38°02' W 122°22'4 8.1
2017-Dec-13 11:58N 37°59' W 122°26'3 6.2
2017-Dec-13 11:31N 37°56' W 122°26'3 5.9
2017-Dec-13 11:01N 37°54' W 122°23'1 1.1
2017-Dec-13 10:13N 37°55' W 122°22'0 0.0
2017-Dec-13 09:43N 37°55' W 122°22'0 0.0
2017-Dec-13 09:16N 37°55' W 122°22'0 0.0
2017-Dec-13 08:49N 37°55' W 122°22'0 0.0
2017-Dec-13 08:28N 37°55' W 122°22'0 0.0
2017-Dec-13 07:55N 37°55' W 122°22'0 0.0
2017-Dec-13 07:28N 37°55' W 122°22'0 0.0
2017-Dec-13 06:55N 37°55' W 122°22'0 0.0
2017-Dec-13 06:25N 37°55' W 122°22'0 0.0
2017-Dec-13 05:55N 37°55' W 122°22'0 0.0
2017-Dec-13 05:19N 37°55' W 122°22'0 0.0
2017-Dec-13 03:55N 37°55' W 122°22'0 0.0
2017-Dec-13 03:25N 37°55' W 122°22'0 0.0
2017-Dec-13 02:55N 37°55' W 122°22'0 0.0
2017-Dec-13 02:28N 37°55' W 122°22'0 0.0
2017-Dec-13 01:55N 37°55' W 122°22'0 0.0
2017-Dec-13 01:16N 37°55' W 122°22'0 0.0
2017-Dec-13 00:58N 37°55' W 122°22'0 0.0
2017-Dec-13 00:10N 37°55' W 122°22'0 0.0
2017-Dec-12 23:58N 37°55' W 122°22'0 0.0
2017-Dec-12 23:16N 37°55' W 122°22'0 0.0
2017-Dec-12 22:58N 37°55' W 122°22'0 0.0
2017-Dec-12 22:25N 37°55' W 122°22'0 0.0
2017-Dec-12 21:58N 37°55' W 122°22'0 0.0
2017-Dec-12 21:25N 37°55' W 122°22'0 0.0
2017-Dec-12 20:58N 37°55' W 122°22'0 0.0
2017-Dec-12 19:52N 37°55' W 122°22'0 0.0
2017-Dec-12 18:09N 37°55' W 122°22'0 0.0
2017-Dec-12 18:00N 37°55' W 122°22'0 0.0
2017-Dec-12 17:27N 37°55' W 122°22'0 0.0
2017-Dec-12 16:57N 37°55' W 122°22'0 0.0
2017-Dec-12 16:27N 37°55' W 122°22'0 0.0
2017-Dec-12 15:57N 37°55' W 122°22'0 0.0
2017-Dec-12 15:27N 37°55' W 122°22'0 0.0
2017-Dec-12 14:57N 37°55' W 122°22'0 0.0
2017-Dec-12 14:27N 37°55' W 122°22'0 0.0
2017-Dec-12 13:57N 37°55' W 122°22'0 0.0
2017-Dec-12 13:27N 37°55' W 122°22'0 0.0
2017-Dec-12 13:00N 37°55' W 122°22'0 0.0
2017-Dec-12 12:27N 37°55' W 122°22'0 0.0
2017-Dec-12 11:57N 37°55' W 122°22'0 0.0
2017-Dec-12 11:27N 37°55' W 122°22'0 0.0
2017-Dec-12 10:57N 37°55' W 122°22'0 0.0
2017-Dec-12 10:27N 37°55' W 122°22'0 0.0
2017-Dec-12 09:51N 37°55' W 122°22'0 0.0
2017-Dec-12 09:27N 37°55' W 122°22'0 0.0
2017-Dec-12 08:51N 37°55' W 122°22'0 0.0
2017-Dec-12 08:27N 37°55' W 122°22'0 0.0
2017-Dec-12 07:57N 37°55' W 122°22'0 0.0
2017-Dec-12 07:21N 37°55' W 122°22'0 0.0
2017-Dec-12 06:57N 37°55' W 122°22'0 0.0
2017-Dec-12 06:21N 37°55' W 122°22'0 0.0
2017-Dec-12 05:57N 37°55' W 122°22'0 0.0
2017-Dec-12 05:21N 37°55' W 122°22'0 0.0
2017-Dec-12 04:57N 37°55' W 122°22'0 0.0
2017-Dec-12 04:15N 37°55' W 122°22'0 0.0
2017-Dec-12 03:51N 37°55' W 122°22'0 0.0
2017-Dec-12 02:39N 37°55' W 122°22'0 0.0
2017-Dec-12 02:27N 37°55' W 122°22'0 0.0
2017-Dec-12 02:00N 37°55' W 122°22'0 0.3
2017-Dec-12 01:27N 37°55' W 122°22'0 0.0
2017-Dec-12 00:57N 37°55' W 122°22'0 0.3
2017-Dec-12 00:25N 37°55' W 122°22'0 0.0
2017-Dec-11 23:58N 37°55' W 122°22'0 0.0
2017-Dec-11 23:28N 37°55' W 122°22'0 0.0
2017-Dec-11 22:58N 37°55' W 122°22'0 0.0
2017-Dec-11 22:28N 37°55' W 122°22'0 0.0
2017-Dec-11 21:55N 37°55' W 122°22'0 0.0
2017-Dec-11 21:28N 37°55' W 122°22'0 0.0
2017-Dec-11 20:58N 37°55' W 122°22'0 0.0
2017-Dec-11 20:28N 37°55' W 122°22'0 0.7
2017-Dec-11 20:00N 37°54' W 122°22'0 0.7
2017-Dec-11 19:29N 37°55' W 122°22'0 0.0
2017-Dec-11 18:53N 37°55' W 122°22'0 0.0
2017-Dec-11 18:29N 37°55' W 122°22'0 0.0
2017-Dec-11 17:59N 37°55' W 122°22'0 0.0
2017-Dec-11 17:29N 37°55' W 122°22'0 0.0
2017-Dec-11 16:59N 37°55' W 122°22'0 0.0
2017-Dec-11 16:23N 37°55' W 122°22'0 0.0
2017-Dec-11 15:59N 37°55' W 122°22'0 0.0
2017-Dec-11 15:26N 37°55' W 122°22'0 0.0
2017-Dec-11 14:59N 37°55' W 122°22'0 0.0
2017-Dec-11 14:26N 37°55' W 122°22'0 0.0
2017-Dec-11 13:59N 37°55' W 122°22'0 0.0
2017-Dec-11 13:29N 37°55' W 122°22'0 0.0
2017-Dec-11 12:56N 37°55' W 122°22'0 0.0
2017-Dec-11 12:29N 37°55' W 122°22'0 0.0
2017-Dec-11 11:59N 37°55' W 122°22'0 0.0
2017-Dec-11 11:29N 37°55' W 122°22'0 0.0
2017-Dec-11 10:59N 37°55' W 122°22'0 0.0
2017-Dec-11 10:29N 37°55' W 122°22'0 0.0
2017-Dec-11 09:59N 37°55' W 122°22'0 0.0
2017-Dec-11 09:26N 37°55' W 122°22'0 0.0
2017-Dec-11 08:59N 37°55' W 122°22'0 0.0
2017-Dec-11 08:29N 37°55' W 122°22'0 0.0
2017-Dec-11 07:59N 37°55' W 122°22'0 0.0
2017-Dec-11 07:23N 37°55' W 122°22'0 0.0
2017-Dec-11 06:59N 37°55' W 122°22'0 0.0
2017-Dec-11 06:29N 37°55' W 122°22'0 0.0
2017-Dec-11 05:59N 37°55' W 122°22'0 0.0
2017-Dec-11 05:29N 37°55' W 122°22'0 0.0
2017-Dec-11 04:56N 37°55' W 122°22'0 0.0
2017-Dec-11 04:29N 37°55' W 122°22'0 0.0
2017-Dec-11 03:56N 37°55' W 122°22'0 0.0
2017-Dec-11 03:29N 37°55' W 122°22'0 0.0
2017-Dec-11 02:56N 37°55' W 122°22'0 0.0
2017-Dec-11 02:29N 37°55' W 122°22'0 0.0
2017-Dec-11 01:53N 37°55' W 122°22'0 0.0
2017-Dec-11 01:29N 37°55' W 122°22'0 0.0
2017-Dec-11 00:59N 37°55' W 122°22'0 0.0
2017-Dec-11 00:26N 37°55' W 122°22'0 0.0
2017-Dec-10 23:56N 37°55' W 122°22'0 0.0
2017-Dec-10 23:29N 37°55' W 122°22'0 0.0
2017-Dec-10 22:59N 37°55' W 122°22'0 0.0
2017-Dec-10 22:29N 37°55' W 122°22'0 0.0
2017-Dec-10 21:56N 37°55' W 122°22'0 0.0
2017-Dec-10 21:26N 37°55' W 122°22'0 0.0
2017-Dec-10 20:59N 37°55' W 122°22'0 0.0
2017-Dec-10 20:29N 37°55' W 122°22'0 0.0
2017-Dec-10 19:58N 37°55' W 122°22'0 0.0
2017-Dec-10 19:28N 37°55' W 122°22'0 0.0
2017-Dec-10 18:58N 37°55' W 122°22'0 0.0
2017-Dec-10 18:28N 37°55' W 122°22'0 0.0
2017-Dec-10 17:58N 37°55' W 122°22'0 0.0
2017-Dec-10 17:28N 37°55' W 122°22'0 0.0
2017-Dec-10 16:58N 37°55' W 122°22'0 0.0
2017-Dec-10 16:25N 37°55' W 122°22'0 0.0
2017-Dec-10 15:58N 37°55' W 122°22'0 0.0
2017-Dec-10 15:25N 37°55' W 122°22'0 0.0
2017-Dec-10 14:58N 37°55' W 122°22'0 0.0
2017-Dec-10 14:25N 37°55' W 122°22'0 0.0
2017-Dec-10 13:55N 37°55' W 122°22'0 0.0
2017-Dec-10 13:28N 37°55' W 122°22'0 0.0
2017-Dec-10 12:58N 37°55' W 122°22'0 0.0
2017-Dec-10 12:28N 37°55' W 122°22'0 0.0
2017-Dec-10 11:58N 37°55' W 122°22'0 0.0
2017-Dec-10 11:28N 37°55' W 122°22'0 0.0
2017-Dec-10 10:58N 37°55' W 122°22'0 0.0
2017-Dec-10 10:28N 37°55' W 122°22'0 0.0
2017-Dec-10 09:55N 37°55' W 122°22'0 0.0
2017-Dec-10 09:19N 37°55' W 122°22'0 0.0
2017-Dec-10 08:58N 37°55' W 122°22'0 0.0
2017-Dec-10 08:28N 37°55' W 122°22'0 0.0
2017-Dec-10 07:58N 37°55' W 122°22'0 0.0
2017-Dec-10 07:28N 37°55' W 122°22'0 0.0
2017-Dec-10 06:55N 37°55' W 122°22'0 0.0
2017-Dec-10 06:28N 37°55' W 122°22'0 0.0
2017-Dec-10 05:58N 37°55' W 122°22'0 0.0
2017-Dec-10 05:31N 37°55' W 122°22'0 0.0
2017-Dec-10 05:01N 37°55' W 122°22'0 0.0
2017-Dec-10 04:27N 37°55' W 122°22'0 0.0
2017-Dec-10 03:57N 37°55' W 122°22'0 0.0
2017-Dec-10 03:30N 37°55' W 122°22'0 0.0
2017-Dec-10 03:00N 37°55' W 122°22'0 0.0
2017-Dec-10 02:27N 37°55' W 122°22'0 0.0
2017-Dec-10 02:00N 37°55' W 122°22'0 0.0
2017-Dec-10 01:30N 37°55' W 122°22'0 0.0
2017-Dec-10 00:57N 37°55' W 122°22'0 0.0
2017-Dec-10 00:30N 37°55' W 122°22'0 0.0
2017-Dec-10 00:00N 37°55' W 122°22'0 0.0
2017-Dec-09 23:30N 37°55' W 122°22'0 0.0
2017-Dec-09 23:00N 37°55' W 122°22'0 0.0
2017-Dec-09 22:30N 37°55' W 122°22'0 0.0
2017-Dec-09 22:00N 37°55' W 122°22'0 0.0
2017-Dec-09 21:30N 37°55' W 122°22'0 0.0
2017-Dec-09 21:00N 37°55' W 122°22'0 0.0
2017-Dec-09 20:24N 37°55' W 122°22'0 0.0
2017-Dec-09 20:00N 37°55' W 122°22'0 0.0
2017-Dec-09 19:24N 37°55' W 122°22'0 0.0
2017-Dec-09 18:54N 37°55' W 122°22'0 0.0
2017-Dec-09 18:30N 37°55' W 122°22'0 0.0
2017-Dec-09 18:00N 37°55' W 122°22'0 0.0
2017-Dec-09 17:30N 37°55' W 122°22'0 0.0
2017-Dec-09 17:00N 37°55' W 122°22'0 0.0
2017-Dec-09 16:30N 37°55' W 122°22'0 0.0
2017-Dec-09 16:00N 37°55' W 122°22'0 0.0
2017-Dec-09 15:30N 37°55' W 122°22'0 0.0
2017-Dec-09 15:00N 37°55' W 122°22'2 3.0
2017-Dec-09 14:30N 37°54' W 122°24'2 3.5
2017-Dec-09 14:01N 37°54' W 122°26'3 5.4
2017-Dec-09 13:31N 37°52' W 122°24'3 5.8
2017-Dec-09 13:00N 37°49' W 122°26'4 7.8
2017-Dec-09 12:31N 37°48' W 122°31'4 8.9
2017-Dec-09 12:01N 37°46' W 122°36'5 8.6
2017-Dec-09 11:28N 37°44' W 122°41'4 8.9
2017-Dec-09 11:00N 37°41' W 122°45'4 8.9
2017-Dec-09 10:30N 37°39' W 122°50'4 8.8
2017-Dec-09 10:00N 37°36' W 122°54'4 8.8
2017-Dec-09 09:30N 37°34' W 122°59'4 8.3
2017-Dec-09 09:00N 37°31' W 123°02'4 8.8
2017-Dec-09 08:30N 37°26' W 123°02'6 8.9
2017-Dec-09 07:53N 37°21' W 123°01'4 9.1
2017-Dec-09 07:29N 37°18' W 122°60'11 8.9
2017-Dec-09 06:13N 37°07' W 122°56'2 8.5
2017-Dec-09 05:59N 37°05' W 122°55'4 8.4
2017-Dec-09 05:30N 37°01' W 122°53'4 8.6
2017-Dec-09 04:59N 36°57' W 122°50'4 8.6
2017-Dec-09 04:30N 36°53' W 122°48'4 8.6
2017-Dec-09 04:00N 36°49' W 122°46'3 6.7
2017-Dec-09 03:30N 36°46' W 122°45'5 8.5
2017-Dec-09 02:53N 36°41' W 122°42'3 8.8
2017-Dec-09 02:30N 36°38' W 122°40'4 8.6
2017-Dec-09 02:00N 36°34' W 122°38'4 8.7
2017-Dec-09 01:31N 36°30' W 122°36'4 8.7
2017-Dec-09 01:00N 36°26' W 122°34'4 8.6
2017-Dec-09 00:30N 36°23' W 122°32'4 8.7
2017-Dec-09 00:00N 36°19' W 122°29'4 8.3
2017-Dec-08 23:30N 36°15' W 122°27'4 8.6
2017-Dec-08 23:00N 36°11' W 122°25'4 8.8
2017-Dec-08 22:30N 36°07' W 122°22'4 8.7
2017-Dec-08 22:00N 36°04' W 122°19'5 9.1
2017-Dec-08 21:30N 35°60' W 122°16'5 9.2
2017-Dec-08 21:00N 35°56' W 122°13'5 9.4
2017-Dec-08 20:30N 35°52' W 122°09'5 9.3
2017-Dec-08 20:00N 35°49' W 122°06'5 9.1
2017-Dec-08 19:30N 35°45' W 122°03'4 8.9
2017-Dec-08 19:00N 35°41' W 121°59'4 8.9
2017-Dec-08 18:30N 35°38' W 121°56'4 8.8
2017-Dec-08 18:00N 35°34' W 121°53'5 9.3
2017-Dec-08 17:30N 35°31' W 121°49'4 7.5
2017-Dec-08 17:00N 35°28' W 121°47'3 5.2
2017-Dec-08 16:30N 35°25' W 121°45'3 5.2
2017-Dec-08 16:00N 35°23' W 121°43'3 5.2
2017-Dec-08 15:30N 35°21' W 121°41'3 5.5
2017-Dec-08 15:00N 35°19' W 121°39'3 5.7
2017-Dec-08 14:31N 35°17' W 121°37'3 6.3
2017-Dec-08 14:01N 35°14' W 121°35'3 6.1
2017-Dec-08 13:30N 35°12' W 121°32'3 6.0
2017-Dec-08 13:01N 35°09' W 121°30'3 6.0
2017-Dec-08 12:30N 35°07' W 121°28'3 5.8
2017-Dec-08 12:00N 35°05' W 121°26'3 5.8
2017-Dec-08 11:30N 35°02' W 121°24'3 5.9
2017-Dec-08 11:00N 35°00' W 121°22'3 6.1
2017-Dec-08 10:30N 34°58' W 121°19'3 6.1
2017-Dec-08 09:59N 34°55' W 121°17'3 5.9
2017-Dec-08 09:31N 34°53' W 121°15'3 5.7
2017-Dec-08 09:00N 34°50' W 121°13'3 5.7
2017-Dec-08 08:28N 34°48' W 121°11'3 5.5
2017-Dec-08 08:01N 34°46' W 121°09'3 5.4
2017-Dec-08 07:31N 34°44' W 121°07'3 5.8
2017-Dec-08 07:00N 34°41' W 121°05'3 5.9
2017-Dec-08 06:31N 34°39' W 121°03'3 6.0
2017-Dec-08 06:01N 34°36' W 121°01'3 6.0
2017-Dec-08 05:31N 34°34' W 120°60'3 6.0
2017-Dec-08 05:01N 34°31' W 120°57'4 7.3
2017-Dec-08 04:31N 34°29' W 120°54'4 7.9
2017-Dec-08 03:57N 34°26' W 120°50'4 8.4
2017-Dec-08 03:28N 34°25' W 120°45'4 8.5
2017-Dec-08 02:59N 34°24' W 120°40'4 8.7
2017-Dec-08 02:29N 34°23' W 120°35'4 8.5
2017-Dec-08 02:00N 34°22' W 120°30'4 8.5
2017-Dec-08 01:30N 34°20' W 120°25'4 8.3
2017-Dec-08 01:00N 34°19' W 120°21'4 8.6
2017-Dec-08 00:31N 34°18' W 120°16'4 8.5
2017-Dec-08 00:00N 34°17' W 120°11'4 8.2
2017-Dec-07 23:30N 34°16' W 120°06'4 8.1
2017-Dec-07 22:59N 34°15' W 120°01'4 8.7
2017-Dec-07 22:28N 34°14' W 119°56'4 8.6
2017-Dec-07 21:59N 34°13' W 119°51'4 9.0
2017-Dec-07 21:30N 34°12' W 119°46'5 9.2
2017-Dec-07 21:00N 34°10' W 119°40'6 9.4
2017-Dec-07 20:23N 34°09' W 119°34'3 9.3
2017-Dec-07 20:01N 34°08' W 119°30'5 9.3
2017-Dec-07 19:31N 34°07' W 119°24'5 9.6
2017-Dec-07 19:00N 34°05' W 119°19'5 9.4
2017-Dec-07 18:30N 34°04' W 119°13'5 9.3
2017-Dec-07 18:00N 34°01' W 119°08'4 8.9
2017-Dec-07 17:31N 33°59' W 119°04'4 8.7
2017-Dec-07 17:01N 33°57' W 118°59'4 8.5
2017-Dec-07 16:31N 33°55' W 118°55'4 8.8
2017-Dec-07 16:00N 33°53' W 118°50'5 8.7
2017-Dec-07 15:29N 33°50' W 118°45'5 8.5
2017-Dec-07 14:54N 33°48' W 118°40'3 8.4
2017-Dec-07 14:30N 33°46' W 118°37'  

Dump ship's entire track history